Blue Note — V2EU8 — position and weather

sailwx.info

Track history (hours):
 
Tides and Currents Weather Stations Pressure Air Temp Water Temp Dewpoint Dewpoint Depression Visibility Wind Speed Wind Dir Waves Ship Positions

Blue Note

Last reported at 2018-Feb-22 12:49 UTC. Time now 2018-Feb-22 13:08 UTC.
Position N 57°43' E 010°36'.

Length 89 m; draft 4 m.

Type: Cargo ship. MMSI: 305565000.

Date/timePositionNaut miles runAvg speedWind from/ knotsBaromVisibWave heightAir tempDewpointWater temp
2018-Feb-22 12:49N 57°43' E 010°36'0 0.0
2018-Feb-22 12:25N 57°43' E 010°36'0 0.0
2018-Feb-22 11:49N 57°43' E 010°36'0 0.0
2018-Feb-22 11:28N 57°43' E 010°36'0 0.0
2018-Feb-22 11:01N 57°43' E 010°36'0 0.0
2018-Feb-22 10:31N 57°43' E 010°36'0 0.0
2018-Feb-22 09:58N 57°43' E 010°36'0 0.0
2018-Feb-22 09:31N 57°43' E 010°36'0 0.0
2018-Feb-22 08:49N 57°43' E 010°36'0 0.0
2018-Feb-22 08:28N 57°43' E 010°36'0 0.0
2018-Feb-22 08:00N 57°43' E 010°36'0 0.0
2018-Feb-22 07:30N 57°43' E 010°36'0 0.8
2018-Feb-22 07:00N 57°43' E 010°36'2 4.9
2018-Feb-22 06:30N 57°43' E 010°40'4 7.1
2018-Feb-22 06:00N 57°41' E 010°46'5 9.5
2018-Feb-22 05:30N 57°36' E 010°45'5 9.5
2018-Feb-22 05:00N 57°32' E 010°45'4 9.0
2018-Feb-22 04:30N 57°27' E 010°45'4 8.9
2018-Feb-22 04:00N 57°23' E 010°44'6 9.0
2018-Feb-22 03:23N 57°17' E 010°43'22 4.9
2018-Feb-21 22:47N 56°57' E 010°27'2 7.3
2018-Feb-21 22:28N 56°58' E 010°23'3 7.2
2018-Feb-21 22:00N 56°59' E 010°17'4 7.3
2018-Feb-21 21:30N 56°60' E 010°11'4 7.3
2018-Feb-21 21:00N 57°02' E 010°06'4 7.2
2018-Feb-21 20:30N 57°05' E 010°01'2 3.5
2018-Feb-21 20:00N 57°04' E 009°58'0 0.0
2018-Feb-21 19:29N 57°04' E 009°58'0 0.0
2018-Feb-21 18:59N 57°04' E 009°58'0 0.0
2018-Feb-21 18:29N 57°04' E 009°58'0 0.0
2018-Feb-21 17:56N 57°04' E 009°58'0 0.0
2018-Feb-21 17:29N 57°04' E 009°58'0 0.0
2018-Feb-21 16:59N 57°04' E 009°58'0 0.0
2018-Feb-21 16:29N 57°04' E 009°58'0 0.0
2018-Feb-21 15:53N 57°04' E 009°58'0 0.0
2018-Feb-21 15:20N 57°04' E 009°58'0 0.0
2018-Feb-21 14:50N 57°04' E 009°58'0 0.0
2018-Feb-21 14:29N 57°04' E 009°58'0 0.0
2018-Feb-21 13:41N 57°04' E 009°58'0 0.0
2018-Feb-21 13:29N 57°04' E 009°58'0 0.0
2018-Feb-21 12:20N 57°04' E 009°58'0 0.0
2018-Feb-21 11:56N 57°04' E 009°58'0 0.0
2018-Feb-21 11:14N 57°04' E 009°58'0 0.0
2018-Feb-21 10:56N 57°04' E 009°58'0 0.0
2018-Feb-21 10:29N 57°04' E 009°58'0 0.0
2018-Feb-21 09:59N 57°04' E 009°58'0 0.0
2018-Feb-21 09:29N 57°04' E 009°58'0 0.0
2018-Feb-21 08:56N 57°04' E 009°58'0 0.0
2018-Feb-21 08:28N 57°04' E 009°58'0 0.0
2018-Feb-21 07:55N 57°04' E 009°58'0 0.0
2018-Feb-21 07:28N 57°04' E 009°58'0 0.0
2018-Feb-21 06:58N 57°04' E 009°58'0 0.0
2018-Feb-21 06:25N 57°04' E 009°58'0 0.0
2018-Feb-21 05:52N 57°04' E 009°58'0 0.0
2018-Feb-21 05:25N 57°04' E 009°58'0 0.0
2018-Feb-21 04:55N 57°04' E 009°58'0 0.0
2018-Feb-21 04:16N 57°04' E 009°58'0 0.0
2018-Feb-21 03:49N 57°04' E 009°58'0 0.0
2018-Feb-21 03:28N 57°04' E 009°58'0 0.0
2018-Feb-21 02:55N 57°04' E 009°58'0 0.0
2018-Feb-21 02:25N 57°04' E 009°58'0 0.0
2018-Feb-21 01:55N 57°04' E 009°58'0 0.0
2018-Feb-21 01:10N 57°04' E 009°58'0 0.0
2018-Feb-21 00:55N 57°04' E 009°58'0 0.0
2018-Feb-21 00:25N 57°04' E 009°58'0 0.0
2018-Feb-20 23:49N 57°04' E 009°58'0 0.0
2018-Feb-20 23:22N 57°04' E 009°58'0 0.0
2018-Feb-20 22:49N 57°04' E 009°58'0 0.0
2018-Feb-20 22:25N 57°04' E 009°58'0 0.0
2018-Feb-20 21:43N 57°04' E 009°58'0 0.0
2018-Feb-20 21:25N 57°04' E 009°58'0 0.0
2018-Feb-20 20:58N 57°04' E 009°58'0 0.0
2018-Feb-20 20:13N 57°04' E 009°58'0 0.0
2018-Feb-20 19:55N 57°04' E 009°58'0 0.0
2018-Feb-20 19:25N 57°04' E 009°58'0 0.0
2018-Feb-20 18:07N 57°04' E 009°58'0 0.0
2018-Feb-20 17:37N 57°04' E 009°58'0 0.0
2018-Feb-20 17:22N 57°04' E 009°58'0 0.0
2018-Feb-20 16:52N 57°04' E 009°58'0 0.0
2018-Feb-20 16:25N 57°04' E 009°58'0 0.0
2018-Feb-20 15:58N 57°04' E 009°58'0 0.0
2018-Feb-20 15:28N 57°04' E 009°58'0 0.0
2018-Feb-20 14:58N 57°04' E 009°58'0 0.0
2018-Feb-20 14:22N 57°04' E 009°58'0 0.0
2018-Feb-20 13:58N 57°04' E 009°58'0 0.0
2018-Feb-20 13:04N 57°04' E 009°58'0 0.0
2018-Feb-20 12:52N 57°04' E 009°58'0 0.0
2018-Feb-20 12:28N 57°04' E 009°58'0 0.0
2018-Feb-20 11:43N 57°04' E 009°58'0 0.0
2018-Feb-20 11:06N 57°04' E 009°58'0 0.0
2018-Feb-20 10:58N 57°04' E 009°58'0 0.0
2018-Feb-20 10:10N 57°04' E 009°58'0 0.0
2018-Feb-20 09:55N 57°04' E 009°58'0 0.0
2018-Feb-20 09:25N 57°04' E 009°58'0 0.0
2018-Feb-20 08:58N 57°04' E 009°58'0 0.0
2018-Feb-20 08:30N 57°04' E 009°58'0 0.0
2018-Feb-20 07:39N 57°04' E 009°58'0 0.0
2018-Feb-20 07:30N 57°04' E 009°58'0 0.0
2018-Feb-20 07:00N 57°04' E 009°58'0 0.0
2018-Feb-20 06:30N 57°04' E 009°58'0 0.1
2018-Feb-20 06:00N 57°04' E 009°58'0 0.0
2018-Feb-20 05:27N 57°04' E 009°58'0 0.0
2018-Feb-20 05:00N 57°04' E 009°58'0 0.1
2018-Feb-20 04:30N 57°04' E 009°58'0 0.0
2018-Feb-20 04:00N 57°04' E 009°58'0 0.0
2018-Feb-20 03:00N 57°04' E 009°58'0 0.0
2018-Feb-20 02:24N 57°04' E 009°58'0 0.0
2018-Feb-20 02:00N 57°04' E 009°58'0 0.0
2018-Feb-20 01:30N 57°04' E 009°58'0 0.0
2018-Feb-20 01:00N 57°04' E 009°58'0 0.0
2018-Feb-20 00:27N 57°04' E 009°58'0 0.0
2018-Feb-20 00:00N 57°04' E 009°58'0 0.0
2018-Feb-19 23:30N 57°04' E 009°58'0 0.0
2018-Feb-19 23:00N 57°04' E 009°58'0 0.0
2018-Feb-19 21:21N 57°04' E 009°58'0 0.0
2018-Feb-19 20:51N 57°04' E 009°58'0 0.0
2018-Feb-19 18:39N 57°04' E 009°58'0 0.0
2018-Feb-19 18:30N 57°04' E 009°58'0 0.0
2018-Feb-19 17:54N 57°04' E 009°58'0 0.0
2018-Feb-19 17:30N 57°04' E 009°58'0 0.0
2018-Feb-19 16:57N 57°04' E 009°58'0 0.0
2018-Feb-19 16:30N 57°04' E 009°58'0 0.0
2018-Feb-19 16:00N 57°04' E 009°58'0 0.0
2018-Feb-19 15:18N 57°04' E 009°58'0 0.0
2018-Feb-19 15:00N 57°04' E 009°58'0 0.0
2018-Feb-19 13:39N 57°04' E 009°58'0 0.0
2018-Feb-19 12:54N 57°04' E 009°58'0 0.0
2018-Feb-19 12:30N 57°04' E 009°58'0 0.0
2018-Feb-19 11:51N 57°04' E 009°58'0 0.0
2018-Feb-19 11:27N 57°04' E 009°58'0 0.0
2018-Feb-19 09:35N 57°04' E 009°58'0 0.0
2018-Feb-19 09:14N 57°04' E 009°58'0 0.0
2018-Feb-19 08:22N 57°04' E 009°58'0 0.0
2018-Feb-19 07:48N 57°04' E 009°58'0 0.0
2018-Feb-19 07:30N 57°04' E 009°58'0 0.0
2018-Feb-19 06:57N 57°04' E 009°58'0 0.0
2018-Feb-19 06:30N 57°04' E 009°58'0 0.0
2018-Feb-19 06:00N 57°04' E 009°58'0 0.0
2018-Feb-19 05:29N 57°04' E 009°58'0 0.0
2018-Feb-19 04:55N 57°04' E 009°58'0 0.0
2018-Feb-19 04:22N 57°04' E 009°58'0 0.0
2018-Feb-19 03:58N 57°04' E 009°58'0 0.0
2018-Feb-19 03:28N 57°04' E 009°58'0 0.0
2018-Feb-19 02:58N 57°04' E 009°58'0 0.0
2018-Feb-19 02:28N 57°04' E 009°58'0 0.0
2018-Feb-19 01:16N 57°04' E 009°58'0 0.0
2018-Feb-19 00:58N 57°04' E 009°58'0 0.0
2018-Feb-19 00:04N 57°04' E 009°58'0 0.0
2018-Feb-18 23:55N 57°04' E 009°58'0 0.0
2018-Feb-18 23:25N 57°04' E 009°58'0 0.0
2018-Feb-18 22:55N 57°04' E 009°58'0 0.0
2018-Feb-18 22:28N 57°04' E 009°58'0 0.0
2018-Feb-18 21:58N 57°04' E 009°58'0 0.1
2018-Feb-18 21:28N 57°04' E 009°58'0 0.1
2018-Feb-18 20:52N 57°04' E 009°58'0 0.0
2018-Feb-18 20:28N 57°04' E 009°58'0 0.0
2018-Feb-18 19:55N 57°04' E 009°58'0 0.0
2018-Feb-18 19:22N 57°04' E 009°58'0 0.0
2018-Feb-18 18:52N 57°04' E 009°58'0 0.0
2018-Feb-18 18:28N 57°04' E 009°58'0 0.0
2018-Feb-18 17:58N 57°04' E 009°58'0 0.0
2018-Feb-18 17:22N 57°04' E 009°58'0 0.0
2018-Feb-18 16:52N 57°04' E 009°58'0 0.0
2018-Feb-18 16:28N 57°04' E 009°58'0 0.0
2018-Feb-18 15:49N 57°04' E 009°58'0 0.0
2018-Feb-18 15:28N 57°04' E 009°58'0 0.0
2018-Feb-18 14:52N 57°04' E 009°58'0 0.0
2018-Feb-18 14:28N 57°04' E 009°58'0 0.0
2018-Feb-18 13:46N 57°04' E 009°58'0 0.0
2018-Feb-18 13:31N 57°04' E 009°58'0 0.0
2018-Feb-18 12:58N 57°04' E 009°58'0 0.0
2018-Feb-18 12:22N 57°04' E 009°58'0 0.0
2018-Feb-18 11:58N 57°04' E 009°58'0 0.0
2018-Feb-18 11:14N 57°04' E 009°58'0 0.1
2018-Feb-18 11:00N 57°04' E 009°58'0 0.0
2018-Feb-18 10:30N 57°04' E 009°58'0 0.0
2018-Feb-18 10:00N 57°04' E 009°58'0 0.0
2018-Feb-18 09:27N 57°04' E 009°58'0 0.0
2018-Feb-18 08:55N 57°04' E 009°58'0 0.0
2018-Feb-18 08:29N 57°04' E 009°58'0 0.0
2018-Feb-18 07:59N 57°04' E 009°58'0 0.0
2018-Feb-18 07:29N 57°04' E 009°58'0 0.0
2018-Feb-18 06:59N 57°04' E 009°58'0 0.0
2018-Feb-18 06:29N 57°04' E 009°58'0 0.0
2018-Feb-18 05:59N 57°04' E 009°58'0 0.0
2018-Feb-18 05:29N 57°04' E 009°58'0 0.0
2018-Feb-18 04:59N 57°04' E 009°58'0 0.0
2018-Feb-18 04:29N 57°04' E 009°58'0 0.0
2018-Feb-18 03:59N 57°04' E 009°58'0 0.0
2018-Feb-18 03:29N 57°04' E 009°58'0 0.0
2018-Feb-18 02:59N 57°04' E 009°58'0 0.0
2018-Feb-18 02:29N 57°04' E 009°58'0 0.0
2018-Feb-18 01:56N 57°04' E 009°58'0 0.0
2018-Feb-18 01:26N 57°04' E 009°58'0 0.0
2018-Feb-18 00:59N 57°04' E 009°58'0 0.0
2018-Feb-18 00:29N 57°04' E 009°58'0 0.0
2018-Feb-17 23:56N 57°04' E 009°58'0 0.0
2018-Feb-17 23:20N 57°04' E 009°58'0 0.0
2018-Feb-17 22:50N 57°04' E 009°58'0 0.0
2018-Feb-17 22:29N 57°04' E 009°58'0 0.0
2018-Feb-17 21:59N 57°04' E 009°58'0 0.0
2018-Feb-17 21:29N 57°04' E 009°58'0 0.0
2018-Feb-17 20:53N 57°04' E 009°58'0 0.0
2018-Feb-17 20:29N 57°04' E 009°58'0 0.0
2018-Feb-17 19:58N 57°04' E 009°58'0 0.0
2018-Feb-17 19:25N 57°04' E 009°58'0 0.0
2018-Feb-17 18:58N 57°04' E 009°58'0 0.0
2018-Feb-17 18:25N 57°04' E 009°58'0 0.0
2018-Feb-17 18:00N 57°04' E 009°58'0 0.0
2018-Feb-17 17:30N 57°04' E 009°58'0 0.0
2018-Feb-17 16:57N 57°04' E 009°58'0 0.0
2018-Feb-17 16:27N 57°04' E 009°58'0 0.0
2018-Feb-17 16:00N 57°04' E 009°58'0 0.0
2018-Feb-17 15:30N 57°04' E 009°58'0 0.0
2018-Feb-17 14:24N 57°04' E 009°58'0 0.0
2018-Feb-17 13:30N 57°04' E 009°58'0 0.0
2018-Feb-17 13:00N 57°04' E 009°58'0 0.0
2018-Feb-17 12:30N 57°04' E 009°58'0 0.0
2018-Feb-17 11:57N 57°04' E 009°58'0 0.0
2018-Feb-17 11:30N 57°04' E 009°58'0 0.0
2018-Feb-17 10:57N 57°04' E 009°58'0 0.0
2018-Feb-17 10:27N 57°04' E 009°58'0 0.0
2018-Feb-17 09:57N 57°04' E 009°58'0 0.0
2018-Feb-17 09:30N 57°04' E 009°58'0 0.0
2018-Feb-17 08:51N 57°04' E 009°58'0 0.0
2018-Feb-17 08:28N 57°04' E 009°58'0 0.0
2018-Feb-17 07:58N 57°04' E 009°58'0 0.0
2018-Feb-17 07:28N 57°04' E 009°58'0 0.0
2018-Feb-17 06:43N 57°04' E 009°58'0 0.0
2018-Feb-17 06:25N 57°04' E 009°58'0 0.0
2018-Feb-17 06:00N 57°04' E 009°58'0 0.0
2018-Feb-17 05:29N 57°04' E 009°58'0 0.0
2018-Feb-17 04:58N 57°04' E 009°58'0 0.0
2018-Feb-17 04:28N 57°04' E 009°58'0 0.0
2018-Feb-17 03:52N 57°04' E 009°58'0 0.0
2018-Feb-17 03:28N 57°04' E 009°58'0 0.0
2018-Feb-17 02:58N 57°04' E 009°58'0 0.0
2018-Feb-17 02:25N 57°04' E 009°58'0 0.0
2018-Feb-17 01:58N 57°04' E 009°58'0 0.0
2018-Feb-17 01:28N 57°04' E 009°58'0 0.0
2018-Feb-17 00:46N 57°04' E 009°58'0 0.0
2018-Feb-17 00:28N 57°04' E 009°58'0 0.1
2018-Feb-16 23:58N 57°04' E 009°58'0 0.0
2018-Feb-16 23:28N 57°04' E 009°58'0 0.0
2018-Feb-16 22:58N 57°04' E 009°58'0 0.0
2018-Feb-16 22:25N 57°04' E 009°58'0 0.0
2018-Feb-16 21:52N 57°04' E 009°58'0 0.0
2018-Feb-16 21:25N 57°04' E 009°58'0 0.0
2018-Feb-16 20:55N 57°04' E 009°58'0 0.0
2018-Feb-16 20:28N 57°04' E 009°58'0 0.0
2018-Feb-16 19:55N 57°04' E 009°58'0 0.0
2018-Feb-16 19:29N 57°04' E 009°58'0 0.0
2018-Feb-16 19:00N 57°04' E 009°58'0 0.1
2018-Feb-16 18:30N 57°04' E 009°58'1 2.1
2018-Feb-16 18:00N 57°05' E 009°59'4 8.0
2018-Feb-16 17:30N 57°03' E 010°05'4 8.4
2018-Feb-16 17:00N 56°60' E 010°11'26 4.0
2018-Feb-16 10:27N 57°20' E 010°41'2 5.2
2018-Feb-16 10:00N 57°23' E 010°42'3 5.1
2018-Feb-16 09:30N 57°25' E 010°42'1 0.9
2018-Feb-16 08:48N 57°25' E 010°42'2 5.7
2018-Feb-16 08:30N 57°23' E 010°42'3 0.1
2018-Feb-15 12:08N 57°21' E 010°42'1 4.2
2018-Feb-15 12:00N 57°21' E 010°42'2 4.1
2018-Feb-15 11:30N 57°23' E 010°43'2 4.0
2018-Feb-15 11:00N 57°25' E 010°43'2 4.4
2018-Feb-15 10:30N 57°27' E 010°43'2 4.1
2018-Feb-15 09:59N 57°29' E 010°43'2 4.2
2018-Feb-15 09:30N 57°31' E 010°43'2 4.3
2018-Feb-15 09:00N 57°34' E 010°43'2 5.0
2018-Feb-15 08:30N 57°36' E 010°43'2 4.9
2018-Feb-15 08:00N 57°39' E 010°44'2 4.0
2018-Feb-15 07:29N 57°41' E 010°45'2 3.8
2018-Feb-15 07:00N 57°42' E 010°45'2 3.8
2018-Feb-15 06:30N 57°44' E 010°45'2 3.8
2018-Feb-15 06:00N 57°46' E 010°45'3 5.2
2018-Feb-15 05:30N 57°47' E 010°41'4 7.9
2018-Feb-15 05:00N 57°47' E 010°33'4 8.5
2018-Feb-15 04:30N 57°47' E 010°25'5 8.7
2018-Feb-15 03:59N 57°46' E 010°17'176 8.4
2018-Feb-14 07:01N 55°36' E 006°43'0 8.3
2018-Feb-14 06:59N 55°36' E 006°42'219 8.3
2018-Feb-13 04:40N 52°26' E 003°35'1 8.5
2018-Feb-13 04:30N 52°25' E 003°34'4 8.6
2018-Feb-13 03:59N 52°22' E 003°29'4 8.7
2018-Feb-13 03:30N 52°19' E 003°23'5 8.9
2018-Feb-13 02:59N 52°16' E 003°18'42 9.5
2018-Feb-12 22:31N 51°44' E 002°34'0 8.6
2018-Feb-12 22:30N 51°44' E 002°33'5 9.2
2018-Feb-12 21:58N 51°40' E 002°28'4 9.0
2018-Feb-12 21:30N 51°36' E 002°24'4 8.7
2018-Feb-12 20:59N 51°33' E 002°19'4 8.3
2018-Feb-12 20:30N 51°30' E 002°15'4 7.7
2018-Feb-12 20:00N 51°27' E 002°12'4 7.5
2018-Feb-12 19:30N 51°23' E 002°10'3 6.9
2018-Feb-12 19:01N 51°20' E 002°08'3 6.7
2018-Feb-12 18:30N 51°17' E 002°06'3 6.4
2018-Feb-12 18:00N 51°14' E 002°03'3 6.3
2018-Feb-12 17:31N 51°12' E 001°59'3 6.5
2018-Feb-12 17:00N 51°10' E 001°55'3 6.6
2018-Feb-12 16:30N 51°08' E 001°51'3 6.6
2018-Feb-12 16:01N 51°06' E 001°47'3 6.7
2018-Feb-12 15:31N 51°04' E 001°43'4 7.0
2018-Feb-12 15:01N 51°01' E 001°40'4 7.5
2018-Feb-12 14:31N 50°58' E 001°36'4 8.0
2018-Feb-12 14:00N 50°55' E 001°32'  
Track history (hours):
 
Tides and Currents Weather Stations Pressure Air Temp Water Temp Dewpoint Dewpoint Depression Visibility Wind Speed Wind Dir Waves Ship Positions

Blue Note

Last reported at 2018-Feb-22 12:49 UTC. Time now 2018-Feb-22 13:08 UTC.
Position N 57°43' E 010°36'.

Length 89 m; draft 4 m.

Type: Cargo ship. MMSI: 305565000.

Date/timePositionNaut miles runAvg speedWind from/ knotsBaromVisibWave heightAir tempDewpointWater temp
2018-Feb-22 12:49N 57°43' E 010°36'0 0.0
2018-Feb-22 12:25N 57°43' E 010°36'0 0.0
2018-Feb-22 11:49N 57°43' E 010°36'0 0.0
2018-Feb-22 11:28N 57°43' E 010°36'0 0.0
2018-Feb-22 11:01N 57°43' E 010°36'0 0.0
2018-Feb-22 10:31N 57°43' E 010°36'0 0.0
2018-Feb-22 09:58N 57°43' E 010°36'0 0.0
2018-Feb-22 09:31N 57°43' E 010°36'0 0.0
2018-Feb-22 08:49N 57°43' E 010°36'0 0.0
2018-Feb-22 08:28N 57°43' E 010°36'0 0.0
2018-Feb-22 08:00N 57°43' E 010°36'0 0.0
2018-Feb-22 07:30N 57°43' E 010°36'0 0.8
2018-Feb-22 07:00N 57°43' E 010°36'2 4.9
2018-Feb-22 06:30N 57°43' E 010°40'4 7.1
2018-Feb-22 06:00N 57°41' E 010°46'5 9.5
2018-Feb-22 05:30N 57°36' E 010°45'5 9.5
2018-Feb-22 05:00N 57°32' E 010°45'4 9.0
2018-Feb-22 04:30N 57°27' E 010°45'4 8.9
2018-Feb-22 04:00N 57°23' E 010°44'6 9.0
2018-Feb-22 03:23N 57°17' E 010°43'22 4.9
2018-Feb-21 22:47N 56°57' E 010°27'2 7.3
2018-Feb-21 22:28N 56°58' E 010°23'3 7.2
2018-Feb-21 22:00N 56°59' E 010°17'4 7.3
2018-Feb-21 21:30N 56°60' E 010°11'4 7.3
2018-Feb-21 21:00N 57°02' E 010°06'4 7.2
2018-Feb-21 20:30N 57°05' E 010°01'2 3.5
2018-Feb-21 20:00N 57°04' E 009°58'0 0.0
2018-Feb-21 19:29N 57°04' E 009°58'0 0.0
2018-Feb-21 18:59N 57°04' E 009°58'0 0.0
2018-Feb-21 18:29N 57°04' E 009°58'0 0.0
2018-Feb-21 17:56N 57°04' E 009°58'0 0.0
2018-Feb-21 17:29N 57°04' E 009°58'0 0.0
2018-Feb-21 16:59N 57°04' E 009°58'0 0.0
2018-Feb-21 16:29N 57°04' E 009°58'0 0.0
2018-Feb-21 15:53N 57°04' E 009°58'0 0.0
2018-Feb-21 15:20N 57°04' E 009°58'0 0.0
2018-Feb-21 14:50N 57°04' E 009°58'0 0.0
2018-Feb-21 14:29N 57°04' E 009°58'0 0.0
2018-Feb-21 13:41N 57°04' E 009°58'0 0.0
2018-Feb-21 13:29N 57°04' E 009°58'0 0.0
2018-Feb-21 12:20N 57°04' E 009°58'0 0.0
2018-Feb-21 11:56N 57°04' E 009°58'0 0.0
2018-Feb-21 11:14N 57°04' E 009°58'0 0.0
2018-Feb-21 10:56N 57°04' E 009°58'0 0.0
2018-Feb-21 10:29N 57°04' E 009°58'0 0.0
2018-Feb-21 09:59N 57°04' E 009°58'0 0.0
2018-Feb-21 09:29N 57°04' E 009°58'0 0.0
2018-Feb-21 08:56N 57°04' E 009°58'0 0.0
2018-Feb-21 08:28N 57°04' E 009°58'0 0.0
2018-Feb-21 07:55N 57°04' E 009°58'0 0.0
2018-Feb-21 07:28N 57°04' E 009°58'0 0.0
2018-Feb-21 06:58N 57°04' E 009°58'0 0.0
2018-Feb-21 06:25N 57°04' E 009°58'0 0.0
2018-Feb-21 05:52N 57°04' E 009°58'0 0.0
2018-Feb-21 05:25N 57°04' E 009°58'0 0.0
2018-Feb-21 04:55N 57°04' E 009°58'0 0.0
2018-Feb-21 04:16N 57°04' E 009°58'0 0.0
2018-Feb-21 03:49N 57°04' E 009°58'0 0.0
2018-Feb-21 03:28N 57°04' E 009°58'0 0.0
2018-Feb-21 02:55N 57°04' E 009°58'0 0.0
2018-Feb-21 02:25N 57°04' E 009°58'0 0.0
2018-Feb-21 01:55N 57°04' E 009°58'0 0.0
2018-Feb-21 01:10N 57°04' E 009°58'0 0.0
2018-Feb-21 00:55N 57°04' E 009°58'0 0.0
2018-Feb-21 00:25N 57°04' E 009°58'0 0.0
2018-Feb-20 23:49N 57°04' E 009°58'0 0.0
2018-Feb-20 23:22N 57°04' E 009°58'0 0.0
2018-Feb-20 22:49N 57°04' E 009°58'0 0.0
2018-Feb-20 22:25N 57°04' E 009°58'0 0.0
2018-Feb-20 21:43N 57°04' E 009°58'0 0.0
2018-Feb-20 21:25N 57°04' E 009°58'0 0.0
2018-Feb-20 20:58N 57°04' E 009°58'0 0.0
2018-Feb-20 20:13N 57°04' E 009°58'0 0.0
2018-Feb-20 19:55N 57°04' E 009°58'0 0.0
2018-Feb-20 19:25N 57°04' E 009°58'0 0.0
2018-Feb-20 18:07N 57°04' E 009°58'0 0.0
2018-Feb-20 17:37N 57°04' E 009°58'0 0.0
2018-Feb-20 17:22N 57°04' E 009°58'0 0.0
2018-Feb-20 16:52N 57°04' E 009°58'0 0.0
2018-Feb-20 16:25N 57°04' E 009°58'0 0.0
2018-Feb-20 15:58N 57°04' E 009°58'0 0.0
2018-Feb-20 15:28N 57°04' E 009°58'0 0.0
2018-Feb-20 14:58N 57°04' E 009°58'0 0.0
2018-Feb-20 14:22N 57°04' E 009°58'0 0.0
2018-Feb-20 13:58N 57°04' E 009°58'0 0.0
2018-Feb-20 13:04N 57°04' E 009°58'0 0.0
2018-Feb-20 12:52N 57°04' E 009°58'0 0.0
2018-Feb-20 12:28N 57°04' E 009°58'0 0.0
2018-Feb-20 11:43N 57°04' E 009°58'0 0.0
2018-Feb-20 11:06N 57°04' E 009°58'0 0.0
2018-Feb-20 10:58N 57°04' E 009°58'0 0.0
2018-Feb-20 10:10N 57°04' E 009°58'0 0.0
2018-Feb-20 09:55N 57°04' E 009°58'0 0.0
2018-Feb-20 09:25N 57°04' E 009°58'0 0.0
2018-Feb-20 08:58N 57°04' E 009°58'0 0.0
2018-Feb-20 08:30N 57°04' E 009°58'0 0.0
2018-Feb-20 07:39N 57°04' E 009°58'0 0.0
2018-Feb-20 07:30N 57°04' E 009°58'0 0.0
2018-Feb-20 07:00N 57°04' E 009°58'0 0.0
2018-Feb-20 06:30N 57°04' E 009°58'0 0.1
2018-Feb-20 06:00N 57°04' E 009°58'0 0.0
2018-Feb-20 05:27N 57°04' E 009°58'0 0.0
2018-Feb-20 05:00N 57°04' E 009°58'0 0.1
2018-Feb-20 04:30N 57°04' E 009°58'0 0.0
2018-Feb-20 04:00N 57°04' E 009°58'0 0.0
2018-Feb-20 03:00N 57°04' E 009°58'0 0.0
2018-Feb-20 02:24N 57°04' E 009°58'0 0.0
2018-Feb-20 02:00N 57°04' E 009°58'0 0.0
2018-Feb-20 01:30N 57°04' E 009°58'0 0.0
2018-Feb-20 01:00N 57°04' E 009°58'0 0.0
2018-Feb-20 00:27N 57°04' E 009°58'0 0.0
2018-Feb-20 00:00N 57°04' E 009°58'0 0.0
2018-Feb-19 23:30N 57°04' E 009°58'0 0.0
2018-Feb-19 23:00N 57°04' E 009°58'0 0.0
2018-Feb-19 21:21N 57°04' E 009°58'0 0.0
2018-Feb-19 20:51N 57°04' E 009°58'0 0.0
2018-Feb-19 18:39N 57°04' E 009°58'0 0.0
2018-Feb-19 18:30N 57°04' E 009°58'0 0.0
2018-Feb-19 17:54N 57°04' E 009°58'0 0.0
2018-Feb-19 17:30N 57°04' E 009°58'0 0.0
2018-Feb-19 16:57N 57°04' E 009°58'0 0.0
2018-Feb-19 16:30N 57°04' E 009°58'0 0.0
2018-Feb-19 16:00N 57°04' E 009°58'0 0.0
2018-Feb-19 15:18N 57°04' E 009°58'0 0.0
2018-Feb-19 15:00N 57°04' E 009°58'0 0.0
2018-Feb-19 13:39N 57°04' E 009°58'0 0.0
2018-Feb-19 12:54N 57°04' E 009°58'0 0.0
2018-Feb-19 12:30N 57°04' E 009°58'0 0.0
2018-Feb-19 11:51N 57°04' E 009°58'0 0.0
2018-Feb-19 11:27N 57°04' E 009°58'0 0.0
2018-Feb-19 09:35N 57°04' E 009°58'0 0.0
2018-Feb-19 09:14N 57°04' E 009°58'0 0.0
2018-Feb-19 08:22N 57°04' E 009°58'0 0.0
2018-Feb-19 07:48N 57°04' E 009°58'0 0.0
2018-Feb-19 07:30N 57°04' E 009°58'0 0.0
2018-Feb-19 06:57N 57°04' E 009°58'0 0.0
2018-Feb-19 06:30N 57°04' E 009°58'0 0.0
2018-Feb-19 06:00N 57°04' E 009°58'0 0.0
2018-Feb-19 05:29N 57°04' E 009°58'0 0.0
2018-Feb-19 04:55N 57°04' E 009°58'0 0.0
2018-Feb-19 04:22N 57°04' E 009°58'0 0.0
2018-Feb-19 03:58N 57°04' E 009°58'0 0.0
2018-Feb-19 03:28N 57°04' E 009°58'0 0.0
2018-Feb-19 02:58N 57°04' E 009°58'0 0.0
2018-Feb-19 02:28N 57°04' E 009°58'0 0.0
2018-Feb-19 01:16N 57°04' E 009°58'0 0.0
2018-Feb-19 00:58N 57°04' E 009°58'0 0.0
2018-Feb-19 00:04N 57°04' E 009°58'0 0.0
2018-Feb-18 23:55N 57°04' E 009°58'0 0.0
2018-Feb-18 23:25N 57°04' E 009°58'0 0.0
2018-Feb-18 22:55N 57°04' E 009°58'0 0.0
2018-Feb-18 22:28N 57°04' E 009°58'0 0.0
2018-Feb-18 21:58N 57°04' E 009°58'0 0.1
2018-Feb-18 21:28N 57°04' E 009°58'0 0.1
2018-Feb-18 20:52N 57°04' E 009°58'0 0.0
2018-Feb-18 20:28N 57°04' E 009°58'0 0.0
2018-Feb-18 19:55N 57°04' E 009°58'0 0.0
2018-Feb-18 19:22N 57°04' E 009°58'0 0.0
2018-Feb-18 18:52N 57°04' E 009°58'0 0.0
2018-Feb-18 18:28N 57°04' E 009°58'0 0.0
2018-Feb-18 17:58N 57°04' E 009°58'0 0.0
2018-Feb-18 17:22N 57°04' E 009°58'0 0.0
2018-Feb-18 16:52N 57°04' E 009°58'0 0.0
2018-Feb-18 16:28N 57°04' E 009°58'0 0.0
2018-Feb-18 15:49N 57°04' E 009°58'0 0.0
2018-Feb-18 15:28N 57°04' E 009°58'0 0.0
2018-Feb-18 14:52N 57°04' E 009°58'0 0.0
2018-Feb-18 14:28N 57°04' E 009°58'0 0.0
2018-Feb-18 13:46N 57°04' E 009°58'0 0.0
2018-Feb-18 13:31N 57°04' E 009°58'0 0.0
2018-Feb-18 12:58N 57°04' E 009°58'0 0.0
2018-Feb-18 12:22N 57°04' E 009°58'0 0.0
2018-Feb-18 11:58N 57°04' E 009°58'0 0.0
2018-Feb-18 11:14N 57°04' E 009°58'0 0.1
2018-Feb-18 11:00N 57°04' E 009°58'0 0.0
2018-Feb-18 10:30N 57°04' E 009°58'0 0.0
2018-Feb-18 10:00N 57°04' E 009°58'0 0.0
2018-Feb-18 09:27N 57°04' E 009°58'0 0.0
2018-Feb-18 08:55N 57°04' E 009°58'0 0.0
2018-Feb-18 08:29N 57°04' E 009°58'0 0.0
2018-Feb-18 07:59N 57°04' E 009°58'0 0.0
2018-Feb-18 07:29N 57°04' E 009°58'0 0.0
2018-Feb-18 06:59N 57°04' E 009°58'0 0.0
2018-Feb-18 06:29N 57°04' E 009°58'0 0.0
2018-Feb-18 05:59N 57°04' E 009°58'0 0.0
2018-Feb-18 05:29N 57°04' E 009°58'0 0.0
2018-Feb-18 04:59N 57°04' E 009°58'0 0.0
2018-Feb-18 04:29N 57°04' E 009°58'0 0.0
2018-Feb-18 03:59N 57°04' E 009°58'0 0.0
2018-Feb-18 03:29N 57°04' E 009°58'0 0.0
2018-Feb-18 02:59N 57°04' E 009°58'0 0.0
2018-Feb-18 02:29N 57°04' E 009°58'0 0.0
2018-Feb-18 01:56N 57°04' E 009°58'0 0.0
2018-Feb-18 01:26N 57°04' E 009°58'0 0.0
2018-Feb-18 00:59N 57°04' E 009°58'0 0.0
2018-Feb-18 00:29N 57°04' E 009°58'0 0.0
2018-Feb-17 23:56N 57°04' E 009°58'0 0.0
2018-Feb-17 23:20N 57°04' E 009°58'0 0.0
2018-Feb-17 22:50N 57°04' E 009°58'0 0.0
2018-Feb-17 22:29N 57°04' E 009°58'0 0.0
2018-Feb-17 21:59N 57°04' E 009°58'0 0.0
2018-Feb-17 21:29N 57°04' E 009°58'0 0.0
2018-Feb-17 20:53N 57°04' E 009°58'0 0.0
2018-Feb-17 20:29N 57°04' E 009°58'0 0.0
2018-Feb-17 19:58N 57°04' E 009°58'0 0.0
2018-Feb-17 19:25N 57°04' E 009°58'0 0.0
2018-Feb-17 18:58N 57°04' E 009°58'0 0.0
2018-Feb-17 18:25N 57°04' E 009°58'0 0.0
2018-Feb-17 18:00N 57°04' E 009°58'0 0.0
2018-Feb-17 17:30N 57°04' E 009°58'0 0.0
2018-Feb-17 16:57N 57°04' E 009°58'0 0.0
2018-Feb-17 16:27N 57°04' E 009°58'0 0.0
2018-Feb-17 16:00N 57°04' E 009°58'0 0.0
2018-Feb-17 15:30N 57°04' E 009°58'0 0.0
2018-Feb-17 14:24N 57°04' E 009°58'0 0.0
2018-Feb-17 13:30N 57°04' E 009°58'0 0.0
2018-Feb-17 13:00N 57°04' E 009°58'0 0.0
2018-Feb-17 12:30N 57°04' E 009°58'0 0.0
2018-Feb-17 11:57N 57°04' E 009°58'0 0.0
2018-Feb-17 11:30N 57°04' E 009°58'0 0.0
2018-Feb-17 10:57N 57°04' E 009°58'0 0.0
2018-Feb-17 10:27N 57°04' E 009°58'0 0.0
2018-Feb-17 09:57N 57°04' E 009°58'0 0.0
2018-Feb-17 09:30N 57°04' E 009°58'0 0.0
2018-Feb-17 08:51N 57°04' E 009°58'0 0.0
2018-Feb-17 08:28N 57°04' E 009°58'0 0.0
2018-Feb-17 07:58N 57°04' E 009°58'0 0.0
2018-Feb-17 07:28N 57°04' E 009°58'0 0.0
2018-Feb-17 06:43N 57°04' E 009°58'0 0.0
2018-Feb-17 06:25N 57°04' E 009°58'0 0.0
2018-Feb-17 06:00N 57°04' E 009°58'0 0.0
2018-Feb-17 05:29N 57°04' E 009°58'0 0.0
2018-Feb-17 04:58N 57°04' E 009°58'0 0.0
2018-Feb-17 04:28N 57°04' E 009°58'0 0.0
2018-Feb-17 03:52N 57°04' E 009°58'0 0.0
2018-Feb-17 03:28N 57°04' E 009°58'0 0.0
2018-Feb-17 02:58N 57°04' E 009°58'0 0.0
2018-Feb-17 02:25N 57°04' E 009°58'0 0.0
2018-Feb-17 01:58N 57°04' E 009°58'0 0.0
2018-Feb-17 01:28N 57°04' E 009°58'0 0.0
2018-Feb-17 00:46N 57°04' E 009°58'0 0.0
2018-Feb-17 00:28N 57°04' E 009°58'0 0.1
2018-Feb-16 23:58N 57°04' E 009°58'0 0.0
2018-Feb-16 23:28N 57°04' E 009°58'0 0.0
2018-Feb-16 22:58N 57°04' E 009°58'0 0.0
2018-Feb-16 22:25N 57°04' E 009°58'0 0.0
2018-Feb-16 21:52N 57°04' E 009°58'0 0.0
2018-Feb-16 21:25N 57°04' E 009°58'0 0.0
2018-Feb-16 20:55N 57°04' E 009°58'0 0.0
2018-Feb-16 20:28N 57°04' E 009°58'0 0.0
2018-Feb-16 19:55N 57°04' E 009°58'0 0.0
2018-Feb-16 19:29N 57°04' E 009°58'0 0.0
2018-Feb-16 19:00N 57°04' E 009°58'0 0.1
2018-Feb-16 18:30N 57°04' E 009°58'1 2.1
2018-Feb-16 18:00N 57°05' E 009°59'4 8.0
2018-Feb-16 17:30N 57°03' E 010°05'4 8.4
2018-Feb-16 17:00N 56°60' E 010°11'26 4.0
2018-Feb-16 10:27N 57°20' E 010°41'2 5.2
2018-Feb-16 10:00N 57°23' E 010°42'3 5.1
2018-Feb-16 09:30N 57°25' E 010°42'1 0.9
2018-Feb-16 08:48N 57°25' E 010°42'2 5.7
2018-Feb-16 08:30N 57°23' E 010°42'3 0.1
2018-Feb-15 12:08N 57°21' E 010°42'1 4.2
2018-Feb-15 12:00N 57°21' E 010°42'2 4.1
2018-Feb-15 11:30N 57°23' E 010°43'2 4.0
2018-Feb-15 11:00N 57°25' E 010°43'2 4.4
2018-Feb-15 10:30N 57°27' E 010°43'2 4.1
2018-Feb-15 09:59N 57°29' E 010°43'2 4.2
2018-Feb-15 09:30N 57°31' E 010°43'2 4.3
2018-Feb-15 09:00N 57°34' E 010°43'2 5.0
2018-Feb-15 08:30N 57°36' E 010°43'2 4.9
2018-Feb-15 08:00N 57°39' E 010°44'2 4.0
2018-Feb-15 07:29N 57°41' E 010°45'2 3.8
2018-Feb-15 07:00N 57°42' E 010°45'2 3.8
2018-Feb-15 06:30N 57°44' E 010°45'2 3.8
2018-Feb-15 06:00N 57°46' E 010°45'3 5.2
2018-Feb-15 05:30N 57°47' E 010°41'4 7.9
2018-Feb-15 05:00N 57°47' E 010°33'4 8.5
2018-Feb-15 04:30N 57°47' E 010°25'5 8.7
2018-Feb-15 03:59N 57°46' E 010°17'176 8.4
2018-Feb-14 07:01N 55°36' E 006°43'0 8.3
2018-Feb-14 06:59N 55°36' E 006°42'219 8.3
2018-Feb-13 04:40N 52°26' E 003°35'1 8.5
2018-Feb-13 04:30N 52°25' E 003°34'4 8.6
2018-Feb-13 03:59N 52°22' E 003°29'4 8.7
2018-Feb-13 03:30N 52°19' E 003°23'5 8.9
2018-Feb-13 02:59N 52°16' E 003°18'42 9.5
2018-Feb-12 22:31N 51°44' E 002°34'0 8.6
2018-Feb-12 22:30N 51°44' E 002°33'5 9.2
2018-Feb-12 21:58N 51°40' E 002°28'4 9.0
2018-Feb-12 21:30N 51°36' E 002°24'4 8.7
2018-Feb-12 20:59N 51°33' E 002°19'4 8.3
2018-Feb-12 20:30N 51°30' E 002°15'4 7.7
2018-Feb-12 20:00N 51°27' E 002°12'4 7.5
2018-Feb-12 19:30N 51°23' E 002°10'3 6.9
2018-Feb-12 19:01N 51°20' E 002°08'3 6.7
2018-Feb-12 18:30N 51°17' E 002°06'3 6.4
2018-Feb-12 18:00N 51°14' E 002°03'3 6.3
2018-Feb-12 17:31N 51°12' E 001°59'3 6.5
2018-Feb-12 17:00N 51°10' E 001°55'3 6.6
2018-Feb-12 16:30N 51°08' E 001°51'3 6.6
2018-Feb-12 16:01N 51°06' E 001°47'3 6.7
2018-Feb-12 15:31N 51°04' E 001°43'4 7.0
2018-Feb-12 15:01N 51°01' E 001°40'4 7.5
2018-Feb-12 14:31N 50°58' E 001°36'4 8.0
2018-Feb-12 14:00N 50°55' E 001°32'  

Dump ship's entire track history